createdAt,value
2022-09-26T00:02:12.490Z,10.03
2022-09-26T00:04:40.430Z,9.10
2022-09-26T00:07:07.254Z,8.85
2022-09-26T00:09:34.449Z,9.33
2022-09-26T00:12:01.569Z,8.68
2022-09-26T00:14:29.625Z,10.25
2022-09-26T00:16:57.303Z,9.05
2022-09-26T00:19:24.275Z,8.85
2022-09-26T00:21:51.091Z,8.80
2022-09-26T00:24:19.605Z,9.76
2022-09-26T00:26:47.549Z,9.79
2022-09-26T00:29:14.725Z,9.65
2022-09-26T00:31:45.511Z,9.04
2022-09-26T00:34:17.582Z,9.93
2022-09-26T00:36:44.611Z,9.23
2022-09-26T00:39:14.395Z,8.91
2022-09-26T00:41:44.352Z,8.95
2022-09-26T00:44:44.576Z,10.10
2022-09-26T00:47:36.601Z,10.36
2022-09-26T00:50:15.849Z,10.06
2022-09-26T00:53:11.853Z,10.42
2022-09-26T00:55:47.272Z,9.71
2022-09-26T00:58:27.140Z,8.82
2022-09-26T01:00:56.004Z,10.14
2022-09-26T01:03:25.549Z,9.07
2022-09-26T01:05:52.651Z,10.19
2022-09-26T01:08:40.449Z,10.13
2022-09-26T01:11:08.384Z,9.27
2022-09-26T01:13:36.968Z,9.49
2022-09-26T01:16:03.914Z,9.64
2022-09-26T01:18:31.471Z,10.30
2022-09-26T01:21:13.653Z,10.14
2022-09-26T01:24:09.001Z,9.73
2022-09-26T01:27:09.711Z,10.27
2022-09-26T01:29:42.615Z,10.34
2022-09-26T01:32:25.477Z,10.35
2022-09-26T01:35:28.529Z,10.09
2022-09-26T01:38:10.126Z,10.29
2022-09-26T01:44:07.606Z,10.39
2022-09-26T01:46:41.561Z,9.24
2022-09-26T01:49:33.530Z,10.43
2022-09-26T01:52:03.334Z,10.00
2022-09-26T01:54:46.782Z,9.65
2022-09-26T01:57:20.532Z,9.54
2022-09-26T01:59:53.500Z,9.92
2022-09-26T02:02:29.424Z,9.61
2022-09-26T02:05:11.556Z,10.34
2022-09-26T02:07:45.875Z,10.17
2022-09-26T02:10:19.138Z,9.73
2022-09-26T02:12:52.671Z,11.05
2022-09-26T02:15:22.148Z,11.10
2022-09-26T02:18:07.503Z,10.47
2022-09-26T02:20:43.765Z,7.99
2022-09-26T02:23:35.462Z,9.56
2022-09-26T02:26:05.492Z,11.43
2022-09-26T02:28:32.788Z,11.45
2022-09-26T02:31:05.783Z,11.16
2022-09-26T02:33:35.744Z,9.61
2022-09-26T02:36:09.765Z,10.44
2022-09-26T02:38:40.327Z,10.68
2022-09-26T02:41:57.479Z,11.17
2022-09-26T02:44:36.104Z,11.20
2022-09-26T02:47:28.919Z,11.08
2022-09-26T02:50:14.488Z,10.96
2022-09-26T02:53:08.219Z,10.84
2022-09-26T02:56:03.918Z,10.73
2022-09-26T02:58:46.559Z,10.69
2022-09-26T03:01:21.109Z,10.66
2022-09-26T03:03:52.022Z,9.98
2022-09-26T03:06:24.696Z,10.82
2022-09-26T03:08:53.592Z,9.76
2022-09-26T03:11:28.901Z,9.28
2022-09-26T03:14:07.843Z,6.87
2022-09-26T03:16:40.787Z,8.77
2022-09-26T03:19:28.887Z,9.55
2022-09-26T03:21:56.275Z,10.22
2022-09-26T03:24:26.730Z,9.59
2022-09-26T03:26:54.990Z,8.35
2022-09-26T03:29:25.520Z,8.42
2022-09-26T03:31:55.343Z,8.91
2022-09-26T03:34:33.056Z,9.74
2022-09-26T03:37:02.187Z,7.89
2022-09-26T03:39:35.052Z,9.95
2022-09-26T03:42:04.191Z,8.99
2022-09-26T03:44:31.439Z,8.18
2022-09-26T03:47:04.727Z,7.61
2022-09-26T03:49:34.807Z,9.35
2022-09-26T03:52:08.969Z,8.71
2022-09-26T03:54:36.488Z,7.36
2022-09-26T03:57:03.727Z,8.51
2022-09-26T03:59:30.691Z,8.42
2022-09-26T04:01:57.837Z,9.58
2022-09-26T04:04:48.003Z,9.95
2022-09-26T04:07:17.269Z,7.11
2022-09-26T04:09:49.062Z,10.04
2022-09-26T04:12:16.010Z,9.65
2022-09-26T04:14:42.882Z,9.88
2022-09-26T04:17:10.182Z,9.37
2022-09-26T04:19:37.245Z,10.00
2022-09-26T04:22:04.568Z,9.78
2022-09-26T04:24:31.427Z,10.67
2022-09-26T04:26:58.272Z,10.76
2022-09-26T04:29:25.146Z,9.38
2022-09-26T04:31:51.994Z,9.90
2022-09-26T04:34:23.495Z,10.68
2022-09-26T04:36:53.244Z,9.98
2022-09-26T04:39:20.418Z,10.27
2022-09-26T04:41:47.383Z,9.73
2022-09-26T04:44:14.571Z,10.04
2022-09-26T04:46:41.474Z,10.68
2022-09-26T04:49:09.272Z,10.90
2022-09-26T04:51:36.162Z,10.81
2022-09-26T04:54:03.261Z,9.95
2022-09-26T04:56:30.725Z,10.85
2022-09-26T04:58:58.870Z,10.31
2022-09-26T05:01:27.579Z,10.22
2022-09-26T05:03:54.413Z,10.96
2022-09-26T05:06:21.443Z,10.68
2022-09-26T05:08:48.730Z,10.16
2022-09-26T05:11:20.729Z,11.14
2022-09-26T05:13:53.051Z,10.99
2022-09-26T05:16:21.779Z,10.74
2022-09-26T05:18:52.463Z,7.81
2022-09-26T05:21:19.532Z,8.50
2022-09-26T05:23:46.753Z,7.38
2022-09-26T05:26:25.156Z,11.39
2022-09-26T05:29:08.010Z,11.61
2022-09-26T05:31:38.518Z,11.94
2022-09-26T05:34:14.344Z,12.44
2022-09-26T05:36:51.551Z,9.43
2022-09-26T05:39:18.808Z,11.50
2022-09-26T05:41:55.767Z,11.58
2022-09-26T05:44:25.116Z,12.26
2022-09-26T05:46:52.314Z,10.96
2022-09-26T05:49:24.129Z,12.19
2022-09-26T05:51:53.556Z,11.03
2022-09-26T05:54:20.433Z,11.29
2022-09-26T05:56:47.309Z,12.97
2022-09-26T05:59:14.712Z,11.64
2022-09-26T06:01:41.847Z,13.23
2022-09-26T06:04:11.283Z,11.32
2022-09-26T06:06:38.598Z,10.81
2022-09-26T06:09:13.120Z,13.77
2022-09-26T06:11:57.804Z,11.50
2022-09-26T06:14:35.127Z,13.74
2022-09-26T06:17:04.362Z,13.73
2022-09-26T06:19:31.555Z,13.43
2022-09-26T06:21:59.696Z,12.78
2022-09-26T06:24:28.563Z,11.68
2022-09-26T06:27:19.843Z,12.91
2022-09-26T06:29:47.389Z,10.48
2022-09-26T06:32:14.300Z,12.89
2022-09-26T06:34:41.397Z,12.47
2022-09-26T06:37:08.766Z,13.46
2022-09-26T06:39:35.912Z,13.41
2022-09-26T06:42:06.523Z,15.20
2022-09-26T06:44:34.403Z,13.41
2022-09-26T06:47:01.464Z,15.86
2022-09-26T06:49:28.925Z,13.94
2022-09-26T06:51:58.674Z,15.22
2022-09-26T06:54:34.731Z,13.40
2022-09-26T06:57:04.999Z,15.84
2022-09-26T06:59:32.085Z,15.74
2022-09-26T07:02:02.366Z,17.11
2022-09-26T07:04:30.240Z,16.62
2022-09-26T07:07:01.669Z,15.87
2022-09-26T07:09:31.534Z,17.06
2022-09-26T07:12:15.553Z,16.12
2022-09-26T07:14:43.833Z,17.16
2022-09-26T07:17:17.767Z,17.29
2022-09-26T07:19:45.207Z,17.21
2022-09-26T07:22:16.564Z,17.65
2022-09-26T07:24:43.670Z,18.48
2022-09-26T07:27:10.716Z,18.91
2022-09-26T07:29:37.628Z,17.78
2022-09-26T07:32:05.036Z,19.15
2022-09-26T07:34:32.162Z,19.38
2022-09-26T07:36:59.215Z,18.19
2022-09-26T07:39:26.202Z,18.51
2022-09-26T07:41:53.321Z,18.68
2022-09-26T07:47:07.315Z,19.09
2022-09-26T07:49:34.532Z,18.48
2022-09-26T07:52:01.556Z,19.34
2022-09-26T07:54:28.535Z,19.85
2022-09-26T07:56:55.478Z,19.54
2022-09-26T07:59:22.407Z,17.39
2022-09-26T08:01:58.671Z,18.94
2022-09-26T08:04:28.377Z,18.35
2022-09-26T08:06:57.388Z,21.07
2022-09-26T08:09:56.811Z,21.55
2022-09-26T08:12:24.655Z,20.66
2022-09-26T08:14:52.375Z,20.98
2022-09-26T08:17:22.126Z,21.55
2022-09-26T08:19:49.113Z,20.63
2022-09-26T08:22:16.123Z,21.17
2022-09-26T08:24:43.095Z,21.14
2022-09-26T08:27:11.649Z,22.03
2022-09-26T08:29:43.166Z,20.68
2022-09-26T08:32:11.846Z,18.93
2022-09-26T08:34:39.138Z,22.74
2022-09-26T08:37:11.076Z,20.38
2022-09-26T08:39:38.277Z,22.39
2022-09-26T08:42:32.841Z,23.59
2022-09-26T08:45:27.458Z,24.32
2022-09-26T08:48:14.034Z,24.41
2022-09-26T08:50:58.309Z,22.51
2022-09-26T08:53:41.364Z,23.28
2022-09-26T08:56:22.393Z,23.69
2022-09-26T08:58:55.440Z,23.27
2022-09-26T09:01:39.221Z,25.24
2022-09-26T09:04:26.450Z,22.82
2022-09-26T09:06:59.081Z,23.92
2022-09-26T09:09:28.909Z,23.19
2022-09-26T09:12:24.330Z,22.73
2022-09-26T09:15:24.530Z,22.24
2022-09-26T09:18:19.873Z,25.63
2022-09-26T09:21:29.110Z,25.74
2022-09-26T09:24:35.727Z,25.29
2022-09-26T09:30:24.705Z,24.19
2022-09-26T09:33:17.826Z,22.26
2022-09-26T09:36:03.151Z,22.98
2022-09-26T09:38:33.792Z,23.08
2022-09-26T09:41:06.789Z,23.33
2022-09-26T09:43:43.051Z,23.38
2022-09-26T09:46:27.667Z,23.57
2022-09-26T09:49:05.945Z,24.59
2022-09-26T09:52:03.629Z,25.47
2022-09-26T09:54:42.156Z,25.00
2022-09-26T09:57:30.829Z,25.42
2022-09-26T10:00:10.448Z,25.89
2022-09-26T10:02:55.909Z,25.19
2022-09-26T10:05:52.637Z,24.22
2022-09-26T10:08:22.052Z,24.77
2022-09-26T10:11:03.994Z,25.10
2022-09-26T10:13:34.362Z,22.36
2022-09-26T10:16:14.116Z,25.01
2022-09-26T10:19:02.969Z,25.29
2022-09-26T10:21:32.748Z,24.80
2022-09-26T10:24:01.054Z,23.62
2022-09-26T10:26:31.528Z,23.27
2022-09-26T10:29:01.529Z,23.43
2022-09-26T10:31:36.013Z,24.63
2022-09-26T10:34:08.352Z,24.57
2022-09-26T10:36:38.049Z,24.79
2022-09-26T10:39:05.048Z,23.94
2022-09-26T10:41:39.787Z,24.25
2022-09-26T10:44:31.835Z,22.26
2022-09-26T10:47:05.745Z,24.10
2022-09-26T10:49:42.575Z,23.96
2022-09-26T10:52:18.781Z,23.46
2022-09-26T10:54:59.591Z,23.68
2022-09-26T10:57:43.659Z,24.11
2022-09-26T11:00:21.054Z,24.38
2022-09-26T11:02:51.845Z,24.65
2022-09-26T11:05:20.717Z,23.04
2022-09-26T11:07:49.195Z,24.71
2022-09-26T11:10:25.974Z,24.05
2022-09-26T11:13:02.154Z,24.48
2022-09-26T11:15:29.739Z,23.18
2022-09-26T11:17:57.170Z,23.23
2022-09-26T11:20:56.078Z,23.93
2022-09-26T11:23:39.637Z,23.89
2022-09-26T11:26:21.593Z,23.89
2022-09-26T11:29:15.493Z,23.91
2022-09-26T11:31:43.513Z,23.37
2022-09-26T11:34:15.925Z,24.26
2022-09-26T11:37:12.111Z,24.65
2022-09-26T11:39:57.236Z,22.70
2022-09-26T11:42:42.751Z,24.46
2022-09-26T11:45:40.841Z,24.45
2022-09-26T11:48:40.033Z,23.93
2022-09-26T11:51:28.109Z,23.81
2022-09-26T11:54:27.353Z,24.60
2022-09-26T11:57:18.598Z,24.54
2022-09-26T12:00:01.758Z,23.75
2022-09-26T12:02:41.137Z,23.33
2022-09-26T12:05:33.917Z,24.30
2022-09-26T12:08:20.757Z,24.26
2022-09-26T12:10:51.079Z,24.49
2022-09-26T12:13:20.809Z,24.49
2022-09-26T12:16:15.261Z,23.95
2022-09-26T12:18:45.194Z,24.17
2022-09-26T12:21:31.793Z,24.06
2022-09-26T12:24:14.496Z,24.11
2022-09-26T12:26:54.789Z,23.39
2022-09-26T12:29:47.027Z,23.88
2022-09-26T12:32:30.270Z,23.95
2022-09-26T12:35:03.522Z,24.05
2022-09-26T12:37:48.355Z,24.32
2022-09-26T12:40:27.082Z,24.78
2022-09-26T12:43:28.796Z,24.07
2022-09-26T12:46:13.112Z,24.41
2022-09-26T12:49:01.343Z,25.07
2022-09-26T12:51:50.753Z,24.89
2022-09-26T12:54:47.971Z,23.86
2022-09-26T12:57:51.889Z,23.79
2022-09-26T13:00:20.789Z,24.32
2022-09-26T13:03:12.682Z,24.15
2022-09-26T13:05:58.548Z,24.00
2022-09-26T13:08:40.356Z,23.93
2022-09-26T13:11:10.157Z,23.80
2022-09-26T13:14:03.730Z,23.13
2022-09-26T13:16:49.118Z,23.80
2022-09-26T13:19:39.576Z,23.88
2022-09-26T13:22:24.833Z,23.00
2022-09-26T13:25:12.971Z,22.96
2022-09-26T13:27:44.350Z,22.20
2022-09-26T13:30:14.258Z,23.71
2022-09-26T13:33:07.460Z,22.83
2022-09-26T13:35:36.519Z,23.01
2022-09-26T13:38:45.309Z,23.57
2022-09-26T13:41:30.605Z,23.53
2022-09-26T13:44:15.732Z,22.61
2022-09-26T13:47:00.916Z,23.37
2022-09-26T13:49:33.557Z,23.34
2022-09-26T13:52:03.392Z,23.24
2022-09-26T13:54:55.399Z,22.21
2022-09-26T13:57:56.233Z,23.10
2022-09-26T14:00:29.014Z,22.16
2022-09-26T14:03:08.070Z,23.00
2022-09-26T14:05:46.561Z,22.89
2022-09-26T14:08:26.166Z,23.01
2022-09-26T14:10:53.870Z,23.06
2022-09-26T14:13:36.086Z,23.10
2022-09-26T14:16:28.474Z,23.13
2022-09-26T14:19:09.551Z,23.11
2022-09-26T14:21:42.752Z,22.60
2022-09-26T14:24:42.759Z,23.08
2022-09-26T14:27:09.638Z,23.02
2022-09-26T14:29:41.995Z,22.94
2022-09-26T14:32:13.447Z,22.82
2022-09-26T14:35:00.250Z,21.75
2022-09-26T14:37:35.838Z,20.52
2022-09-26T14:43:13.641Z,22.66
2022-09-26T14:45:46.954Z,22.64
2022-09-26T14:48:18.564Z,22.58
2022-09-26T14:50:58.968Z,22.58
2022-09-26T14:53:26.237Z,22.52
2022-09-26T14:56:01.282Z,22.50
2022-09-26T14:58:38.717Z,21.13
2022-09-26T15:01:11.637Z,21.84
2022-09-26T15:03:39.474Z,21.91
2022-09-26T15:06:06.913Z,21.77
2022-09-26T15:08:39.260Z,21.77
2022-09-26T15:11:07.667Z,21.54
2022-09-26T15:13:45.329Z,22.34
2022-09-26T15:16:21.057Z,22.27
2022-09-26T15:19:20.410Z,22.24
2022-09-26T15:22:15.691Z,21.57
2022-09-26T15:24:43.241Z,21.99
2022-09-26T15:27:22.881Z,22.14
2022-09-26T15:29:54.609Z,21.62
2022-09-26T15:32:29.956Z,21.29
2022-09-26T15:35:00.098Z,21.00
2022-09-26T15:37:31.178Z,21.81
2022-09-26T15:40:31.783Z,18.89
2022-09-26T15:43:41.649Z,21.88
2022-09-26T15:46:30.727Z,21.92
2022-09-26T15:49:00.749Z,21.12
2022-09-26T15:51:37.188Z,21.85
2022-09-26T15:54:31.562Z,20.70
2022-09-26T15:57:05.626Z,21.01
2022-09-26T15:59:53.774Z,18.85
2022-09-26T16:03:23.884Z,21.77
2022-09-26T16:05:22.050Z,19.01
2022-09-26T16:07:57.090Z,20.44
2022-09-26T16:10:33.691Z,21.68
2022-09-26T16:13:00.894Z,21.14
2022-09-26T16:15:32.688Z,21.63
2022-09-26T16:17:59.574Z,21.54
2022-09-26T16:20:28.727Z,21.52
2022-09-26T16:23:05.293Z,21.53
2022-09-26T16:25:41.636Z,21.53
2022-09-26T16:28:11.652Z,21.48
2022-09-26T16:30:41.445Z,21.28
2022-09-26T16:33:08.270Z,21.38
2022-09-26T16:35:37.130Z,21.32
2022-09-26T16:38:26.950Z,21.16
2022-09-26T16:41:02.430Z,21.10
2022-09-26T16:43:32.442Z,20.68
2022-09-26T16:46:12.032Z,20.72
2022-09-26T16:48:51.241Z,20.43
2022-09-26T16:51:21.592Z,20.33
2022-09-26T16:53:57.034Z,16.76
2022-09-26T16:56:25.514Z,17.72
2022-09-26T16:59:04.775Z,18.60
2022-09-26T17:01:32.328Z,19.06
2022-09-26T17:04:01.954Z,17.55
2022-09-26T17:06:30.970Z,19.37
2022-09-26T17:09:03.019Z,16.18
2022-09-26T17:11:32.154Z,16.77
2022-09-26T17:13:59.228Z,18.06
2022-09-26T17:16:26.963Z,17.77
2022-09-26T17:19:03.248Z,18.26
2022-09-26T17:21:30.194Z,19.42
2022-09-26T17:23:57.394Z,18.59
2022-09-26T17:26:27.117Z,18.59
2022-09-26T17:28:54.550Z,17.31
2022-09-26T17:31:23.508Z,17.39
2022-09-26T17:33:53.171Z,17.30
2022-09-26T17:36:23.645Z,19.07
2022-09-26T17:39:00.530Z,17.44
2022-09-26T17:41:30.726Z,18.58
2022-09-26T17:44:00.726Z,19.25
2022-09-26T17:46:31.737Z,16.58
2022-09-26T17:48:59.477Z,16.51
2022-09-26T17:51:28.833Z,18.09
2022-09-26T17:53:58.593Z,19.64
2022-09-26T18:57:32.601Z,17.07
2022-09-26T19:00:12.152Z,15.04
2022-09-26T19:06:04.160Z,16.48
2022-09-26T19:08:58.108Z,16.18
2022-09-26T19:11:52.798Z,15.31
2022-09-26T19:14:47.470Z,14.74
2022-09-26T19:23:48.235Z,13.96
2022-09-26T19:26:54.287Z,14.02
2022-09-26T19:36:32.713Z,16.47
2022-09-26T19:39:23.995Z,14.61
2022-09-26T19:42:11.769Z,14.43
2022-09-26T19:47:55.436Z,15.55
2022-09-26T19:53:26.411Z,16.77
2022-09-26T19:58:53.560Z,13.60
2022-09-26T20:01:53.403Z,14.60
2022-09-26T20:04:38.068Z,16.09
2022-09-26T20:07:58.354Z,14.29
2022-09-26T20:11:57.752Z,13.76
2022-09-26T20:13:41.547Z,16.36
2022-09-26T20:19:57.772Z,16.41
2022-09-26T20:22:41.247Z,13.06
2022-09-26T20:25:39.706Z,13.03
2022-09-26T20:29:18.273Z,16.12
2022-09-26T20:31:51.239Z,13.79
2022-09-26T20:34:44.765Z,13.02
2022-09-26T20:37:22.559Z,14.40
2022-09-26T20:39:51.204Z,14.54
2022-09-26T20:42:21.549Z,15.68
2022-09-26T20:44:57.836Z,14.34
2022-09-26T20:52:55.355Z,15.92
2022-09-26T20:56:32.333Z,15.14
2022-09-26T20:58:35.935Z,13.89
2022-09-26T21:01:24.505Z,12.80
2022-09-26T21:07:18.074Z,15.72
2022-09-26T21:10:09.464Z,14.01
2022-09-26T22:11:33.114Z,11.85
2022-09-26T22:18:04.429Z,11.71
2022-09-26T22:21:05.611Z,13.55
2022-09-26T22:32:24.699Z,15.30
2022-09-26T23:26:27.341Z,11.60
